Search for airport 
image banner adimage banner adimage banner ad
image banner ad

83CA - The Met

Located in Costa Mesa, United States

ICAO - 83CA, IATA -

Data provided by Airmate  

General information

Coordinates: N33°41'19" W117°52'41"
Elevation is 204 feet MSL.
Magnetic variation is 14° East
View others Airports in California

Operational data

Special qualification required
Current time UTC:
Current local time:
METAR: KSNA 221453Z VRB04KT 9SM BKN013 19/14 A2993 RMK AO2 SLP134 T01940139 53003
TAF: KSNA 221137Z 2212/2312 VRB04KT P6SM BKN012 TEMPO 2212/2215 FEW013 FM221600 VRB05KT P6SM SCT012 BKN150 FM222000 24009KT P6SM BKN200 FM230300 20005KT P6SM SCT018 FM230800 VRB04KT P6SM BKN012
View NOTAMs / SUP AIP / TFR affecting this airport [VIEW]
Communications frequencies: [VIEW]

Runways:

Airport contact information

Address: Costa Mesa United States

Satellite view of 83CA